createdAt,value
2023-10-01T00:03:37.146Z,15.35
2023-10-01T00:08:44.656Z,15.38
2023-10-01T00:13:50.321Z,15.37
2023-10-01T00:18:55.929Z,15.35
2023-10-01T00:24:00.990Z,15.31
2023-10-01T00:29:05.919Z,15.22
2023-10-01T00:34:11.805Z,15.18
2023-10-01T00:39:16.650Z,15.12
2023-10-01T00:44:21.615Z,15.06
2023-10-01T00:49:33.388Z,15.08
2023-10-01T00:54:38.581Z,15.05
2023-10-01T00:59:44.728Z,15.06
2023-10-01T01:05:07.936Z,15.04
2023-10-01T01:10:17.804Z,15.05
2023-10-01T01:15:31.853Z,15.03
2023-10-01T01:20:44.863Z,15.05
2023-10-01T01:25:53.497Z,15.07
2023-10-01T01:31:01.168Z,15.11
2023-10-01T01:36:07.601Z,15.14
2023-10-01T01:41:20.530Z,15.15
2023-10-01T01:46:26.706Z,15.13
2023-10-01T01:51:32.267Z,15.12
2023-10-01T01:56:41.550Z,15.14
2023-10-01T02:01:46.899Z,15.10
2023-10-01T02:06:54.189Z,15.06
2023-10-01T02:12:01.092Z,15.08
2023-10-01T02:17:18.999Z,15.13
2023-10-01T02:22:25.799Z,15.15
2023-10-01T02:27:45.561Z,15.15
2023-10-01T02:33:15.514Z,15.19
2023-10-01T02:38:38.212Z,15.14
2023-10-01T02:43:56.755Z,15.18
2023-10-01T02:49:15.819Z,15.20
2023-10-01T02:54:23.510Z,15.22
2023-10-01T02:59:30.955Z,15.23
2023-10-01T03:04:37.561Z,15.16
2023-10-01T03:09:42.508Z,15.12
2023-10-01T03:15:05.144Z,15.13
2023-10-01T03:20:35.818Z,15.16
2023-10-01T03:25:44.001Z,15.20
2023-10-01T03:30:53.339Z,15.19
2023-10-01T03:35:59.264Z,15.22
2023-10-01T03:41:10.102Z,15.21
2023-10-01T03:46:28.161Z,15.22
2023-10-01T03:51:51.948Z,15.18
2023-10-01T03:57:00.371Z,15.18
2023-10-01T04:02:26.932Z,15.20
2023-10-01T04:07:41.994Z,15.23
2023-10-01T04:12:51.369Z,15.20
2023-10-01T04:18:10.731Z,15.23
2023-10-01T04:23:25.294Z,15.28
2023-10-01T04:28:32.660Z,15.29
2023-10-01T04:33:44.321Z,15.32
2023-10-01T04:38:50.221Z,15.32
2023-10-01T04:44:07.492Z,15.32
2023-10-01T04:54:48.665Z,15.35
2023-10-01T04:59:59.753Z,15.34
2023-10-01T05:05:12.491Z,15.37
2023-10-01T05:10:19.152Z,15.33
2023-10-01T05:15:26.686Z,15.32
2023-10-01T05:20:30.527Z,15.36
2023-10-01T05:25:35.466Z,15.42
2023-10-01T05:30:40.564Z,15.45
2023-10-01T05:35:46.074Z,15.48
2023-10-01T05:40:56.478Z,15.52
2023-10-01T05:46:03.293Z,15.53
2023-10-01T05:51:07.875Z,15.56
2023-10-01T05:56:16.438Z,15.57
2023-10-01T06:01:23.710Z,15.65
2023-10-01T06:06:27.024Z,15.71
2023-10-01T06:11:42.847Z,15.73
2023-10-01T06:16:50.861Z,15.86
2023-10-01T06:22:14.177Z,15.97
2023-10-01T06:27:20.520Z,16.07
2023-10-01T06:32:25.142Z,16.17
2023-10-01T06:37:47.082Z,16.21
2023-10-01T06:42:52.087Z,16.29
2023-10-01T06:47:55.294Z,16.57
2023-10-01T06:53:01.291Z,17.02
2023-10-01T06:58:09.835Z,17.42
2023-10-01T07:03:23.447Z,17.67
2023-10-01T07:08:38.964Z,17.85
2023-10-01T07:13:44.346Z,18.01
2023-10-01T07:18:47.895Z,18.17
2023-10-01T07:23:51.146Z,18.32
2023-10-01T07:28:59.655Z,18.42
2023-10-01T07:34:03.432Z,18.61
2023-10-01T07:39:07.124Z,18.86
2023-10-01T07:44:12.377Z,18.97
2023-10-01T07:49:20.298Z,19.04
2023-10-01T07:54:25.809Z,19.12
2023-10-01T07:59:35.376Z,19.27
2023-10-01T08:04:59.193Z,19.49
2023-10-01T08:10:06.209Z,19.62
2023-10-01T08:15:37.085Z,19.79
2023-10-01T08:20:47.463Z,20.00
2023-10-01T08:25:52.832Z,20.27
2023-10-01T08:31:20.835Z,20.49
2023-10-01T08:36:27.163Z,20.75
2023-10-01T08:41:33.917Z,20.86
2023-10-01T08:46:41.580Z,20.91
2023-10-01T08:51:45.539Z,20.97
2023-10-01T08:56:48.642Z,20.98
2023-10-01T09:01:57.223Z,21.10
2023-10-01T09:07:01.467Z,21.31
2023-10-01T09:12:19.614Z,21.59
2023-10-01T09:17:28.004Z,21.75
2023-10-01T09:22:44.508Z,21.74
2023-10-01T09:28:01.031Z,21.80
2023-10-01T09:33:16.162Z,21.94
2023-10-01T09:38:21.249Z,22.03
2023-10-01T09:43:32.261Z,22.04
2023-10-01T09:48:38.456Z,22.23
2023-10-01T09:53:49.184Z,22.45
2023-10-01T09:58:59.053Z,22.66
2023-10-01T10:04:06.029Z,22.73
2023-10-01T10:09:26.672Z,22.87
2023-10-01T10:14:58.010Z,23.11
2023-10-01T10:20:38.961Z,23.26
2023-10-01T10:25:43.001Z,23.32
2023-10-01T10:31:35.726Z,23.59
2023-10-01T10:36:52.069Z,23.73
2023-10-01T10:42:30.680Z,24.06
2023-10-01T10:48:01.531Z,24.18
2023-10-01T10:53:16.206Z,24.20
2023-10-01T10:58:21.250Z,24.13
2023-10-01T11:03:42.555Z,24.28
2023-10-01T11:08:52.731Z,24.36
2023-10-01T11:14:08.669Z,24.47
2023-10-01T11:19:15.143Z,24.53
2023-10-01T11:24:20.223Z,24.58
2023-10-01T11:29:24.322Z,24.57
2023-10-01T11:34:32.330Z,24.60
2023-10-01T11:39:42.149Z,24.55
2023-10-01T11:44:45.487Z,24.54
2023-10-01T11:50:08.364Z,24.52
2023-10-01T11:55:21.644Z,24.47
2023-10-01T12:00:53.827Z,24.40
2023-10-01T12:05:58.647Z,24.42
2023-10-01T12:11:24.465Z,24.36
2023-10-01T12:16:31.304Z,24.24
2023-10-01T12:21:35.319Z,24.29
2023-10-01T12:26:40.214Z,24.41
2023-10-01T12:31:46.215Z,24.42
2023-10-01T12:36:49.524Z,24.43
2023-10-01T12:41:58.858Z,24.41
2023-10-01T12:47:04.295Z,24.34
2023-10-01T12:52:10.379Z,24.29
2023-10-01T12:57:19.739Z,24.31
2023-10-01T13:02:30.380Z,24.32
2023-10-01T13:07:37.385Z,24.31
2023-10-01T13:12:55.160Z,24.29
2023-10-01T13:18:02.681Z,24.29
2023-10-01T13:23:08.414Z,24.31
2023-10-01T13:28:19.290Z,24.29
2023-10-01T13:33:27.651Z,24.25
2023-10-01T13:38:57.627Z,24.18
2023-10-01T13:44:20.215Z,24.14
2023-10-01T13:49:40.737Z,24.13
2023-10-01T13:55:01.510Z,24.12
2023-10-01T14:00:24.652Z,24.10
2023-10-01T14:05:45.556Z,24.10
2023-10-01T14:10:52.836Z,24.13
2023-10-01T14:16:13.081Z,24.11
2023-10-01T14:21:16.968Z,24.15
2023-10-01T14:26:22.493Z,24.19
2023-10-01T14:31:42.698Z,24.18
2023-10-01T14:36:46.898Z,24.12
2023-10-01T14:41:51.905Z,24.08
2023-10-01T14:46:58.352Z,24.07
2023-10-01T14:52:01.678Z,24.07
2023-10-01T14:57:05.217Z,24.01
2023-10-01T15:02:16.659Z,24.02
2023-10-01T15:07:22.619Z,23.92
2023-10-01T15:12:34.071Z,23.67
2023-10-01T15:17:56.336Z,23.49
2023-10-01T15:22:59.814Z,23.34
2023-10-01T15:28:11.054Z,23.22
2023-10-01T15:33:19.498Z,23.11
2023-10-01T15:38:34.589Z,22.97
2023-10-01T15:43:44.215Z,22.87
2023-10-01T15:48:51.236Z,22.74
2023-10-01T15:53:55.468Z,22.62
2023-10-01T15:59:04.142Z,22.49
2023-10-01T16:04:14.776Z,22.39
2023-10-01T16:09:18.479Z,22.26
2023-10-01T16:14:28.016Z,22.15
2023-10-01T16:19:34.067Z,22.03
2023-10-01T16:24:40.458Z,21.89
2023-10-01T16:29:44.614Z,21.80
2023-10-01T16:34:49.845Z,21.69
2023-10-01T16:39:53.566Z,21.55
2023-10-01T16:44:59.371Z,21.46
2023-10-01T16:50:15.676Z,21.34
2023-10-01T16:55:22.135Z,21.26
2023-10-01T17:00:38.784Z,21.18
2023-10-01T17:05:43.927Z,21.08
2023-10-01T17:10:48.315Z,20.98
2023-10-01T17:15:53.803Z,20.87
2023-10-01T17:20:58.543Z,20.76
2023-10-01T17:26:04.259Z,20.64
2023-10-01T17:31:08.714Z,20.59
2023-10-01T17:36:15.461Z,20.53
2023-10-01T17:41:23.573Z,20.45
2023-10-01T17:46:34.308Z,20.36
2023-10-01T17:51:45.920Z,20.24
2023-10-01T17:56:49.381Z,20.12
2023-10-01T18:01:53.259Z,20.02
2023-10-01T18:06:58.900Z,19.94
2023-10-01T18:12:15.220Z,19.83
2023-10-01T18:17:18.790Z,19.74
2023-10-01T18:22:26.550Z,19.68
2023-10-01T18:27:29.983Z,19.62
2023-10-01T18:32:34.152Z,19.55
2023-10-01T18:37:39.380Z,19.44
2023-10-01T18:42:44.358Z,19.36
2023-10-01T18:47:49.504Z,19.29
2023-10-01T18:52:56.097Z,19.23
2023-10-01T18:58:00.027Z,19.17
2023-10-01T19:03:03.205Z,19.09
2023-10-01T19:08:08.706Z,19.04
2023-10-01T19:13:14.453Z,19.02
2023-10-01T19:18:17.899Z,18.98
2023-10-01T19:23:31.748Z,18.95
2023-10-01T19:28:36.388Z,18.93
2023-10-01T19:33:39.999Z,18.87
2023-10-01T19:38:48.705Z,18.82
2023-10-01T19:43:56.175Z,18.78
2023-10-01T19:49:01.209Z,18.70
2023-10-01T19:54:07.393Z,18.63
2023-10-01T19:59:18.368Z,18.61
2023-10-01T20:04:22.639Z,18.53
2023-10-01T20:09:28.981Z,18.48
2023-10-01T20:14:36.826Z,18.40
2023-10-01T20:19:44.685Z,18.35
2023-10-01T20:24:53.652Z,18.31
2023-10-01T20:29:57.545Z,18.22
2023-10-01T20:35:03.730Z,18.21
2023-10-01T20:40:14.210Z,18.17
2023-10-01T20:45:35.036Z,18.11
2023-10-01T20:50:41.571Z,18.07
2023-10-01T20:55:46.516Z,18.01
2023-10-01T21:00:52.137Z,17.96
2023-10-01T21:05:56.717Z,17.92
2023-10-01T21:11:03.637Z,17.88
2023-10-01T21:16:07.264Z,17.83
2023-10-01T21:21:12.610Z,17.78
2023-10-01T21:26:25.077Z,17.70
2023-10-01T21:31:31.651Z,17.64
2023-10-01T21:36:40.130Z,17.57
2023-10-01T21:41:51.076Z,17.53
2023-10-01T21:46:57.930Z,17.48
2023-10-01T21:52:07.840Z,17.44
2023-10-01T21:57:12.312Z,17.37
2023-10-01T22:02:20.002Z,17.36
2023-10-01T22:07:24.822Z,17.33
2023-10-01T22:12:30.476Z,17.29
2023-10-01T22:17:36.236Z,17.25
2023-10-01T22:22:50.849Z,17.20
2023-10-01T22:28:03.694Z,17.14
2023-10-01T22:33:16.935Z,17.09
2023-10-01T22:38:21.268Z,17.04
2023-10-01T22:43:28.367Z,17.01
2023-10-01T22:48:44.868Z,16.97
2023-10-01T22:53:48.346Z,16.93
2023-10-01T22:58:52.905Z,16.88
2023-10-01T23:04:10.819Z,16.84
2023-10-01T23:09:20.036Z,16.82
2023-10-01T23:14:43.707Z,16.79
2023-10-01T23:19:54.633Z,16.79
2023-10-01T23:24:58.502Z,16.77
2023-10-01T23:30:21.318Z,16.77
2023-10-01T23:40:55.489Z,16.71
2023-10-01T23:46:01.655Z,16.68
2023-10-01T23:51:10.493Z,16.66
2023-10-01T23:56:15.327Z,16.63
